Time;durP1;ratioP1;P1;durP2;ratioP2;P2;SDS_P1;SDS_P2;PMS_P1;PMS_P2;Temp;Humidity;BMP_temperature;BMP_pressure;BME280_temperature;BME280_humidity;BME280_pressure;Samples;Min_cycle;Max_cycle;Signal;HPM_P1;HPM_P2
2022/07/25 00:00:58;;;;;;;4.25;1.00;;;19.40;99.90;;;;;;5010653;28;20042;-80
2022/07/25 00:03:23;;;;;;;5.47;1.20;;;19.50;99.90;;;;;;5012728;28;20395;-80
2022/07/25 00:05:49;;;;;;;4.57;1.60;;;19.50;99.90;;;;;;5012739;28;20414;-80
2022/07/25 00:08:15;;;;;;;4.63;1.65;;;19.50;99.90;;;;;;5012672;28;20022;-80
2022/07/25 00:10:40;;;;;;;6.63;2.00;;;19.50;99.90;;;;;;4992953;28;20030;-81
2022/07/25 00:13:06;;;;;;;5.25;1.55;;;19.50;99.90;;;;;;4989449;28;20146;-83
2022/07/25 00:15:32;;;;;;;4.63;1.63;;;19.50;99.90;;;;;;4992106;28;20460;-79
2022/07/25 00:17:58;;;;;;;9.15;1.70;;;19.50;99.90;;;;;;4991238;28;20072;-80
2022/07/25 00:20:23;;;;;;;7.72;1.63;;;19.60;99.90;;;;;;4992890;28;20110;-80
2022/07/25 00:22:49;;;;;;;7.00;1.98;;;19.50;99.90;;;;;;4993145;28;20106;-79
2022/07/25 00:25:15;;;;;;;4.97;1.73;;;19.60;99.90;;;;;;4992859;28;20030;-81
2022/07/25 00:27:41;;;;;;;4.88;1.70;;;19.60;99.90;;;;;;4992572;28;20019;-81
2022/07/25 00:32:35;;;;;;;4.90;1.67;;;19.60;99.90;;;;;;4984443;28;20022;-81
2022/07/25 00:35:01;;;;;;;3.78;1.65;;;19.70;99.90;;;;;;4991919;28;20037;-80
2022/07/25 00:37:26;;;;;;;5.40;1.48;;;19.70;99.90;;;;;;4992555;28;20392;-80
2022/07/25 00:39:52;;;;;;;3.88;1.70;;;19.70;99.90;;;;;;4992802;28;20389;-80
2022/07/25 00:42:18;;;;;;;5.88;1.63;;;19.60;99.90;;;;;;4992101;28;20022;-79
2022/07/25 00:44:43;;;;;;;6.88;1.92;;;19.50;99.90;;;;;;4991823;28;20479;-81
2022/07/25 00:47:09;;;;;;;5.00;1.52;;;19.40;99.90;;;;;;4992529;28;20037;-81
2022/07/25 00:49:36;;;;;;;5.18;1.83;;;19.40;99.90;;;;;;4991122;28;20022;-80
2022/07/25 00:52:03;;;;;;;3.90;1.65;;;19.40;99.90;;;;;;4992191;28;20026;-79
2022/07/25 00:54:29;;;;;;;7.38;2.40;;;19.30;99.90;;;;;;4992595;28;20030;-80
2022/07/25 00:56:55;;;;;;;8.80;2.38;;;19.40;99.90;;;;;;4991388;28;20418;-81
2022/07/25 00:59:20;;;;;;;10.13;2.20;;;19.40;99.90;;;;;;5030121;22;20408;-81
2022/07/25 01:01:46;;;;;;;8.88;2.70;;;19.30;99.90;;;;;;4987554;28;20596;-79
2022/07/25 01:04:12;;;;;;;13.00;3.00;;;19.30;99.90;;;;;;4972356;28;20101;-80
2022/07/25 01:06:38;;;;;;;5.00;1.90;;;19.30;99.90;;;;;;4970951;28;20031;-79
2022/07/25 01:09:04;;;;;;;7.68;2.20;;;19.20;99.90;;;;;;4972392;28;20062;-81
2022/07/25 01:11:30;;;;;;;8.27;2.15;;;19.20;99.90;;;;;;4972413;28;20480;-79
2022/07/25 01:13:55;;;;;;;9.25;2.88;;;19.30;99.90;;;;;;4971935;28;20015;-80
2022/07/25 01:16:21;;;;;;;7.13;2.63;;;19.30;99.90;;;;;;4972688;28;20113;-80
2022/07/25 01:18:47;;;;;;;7.07;2.25;;;19.30;99.90;;;;;;4972331;28;20084;-81
2022/07/25 01:21:13;;;;;;;9.70;2.65;;;19.30;99.90;;;;;;4971947;28;20027;-80
2022/07/25 01:23:39;;;;;;;7.22;3.20;;;19.30;99.90;;;;;;4971090;28;20029;-79
2022/07/25 01:26:05;;;;;;;12.07;2.40;;;19.30;99.90;;;;;;4970858;28;20019;-80
2022/07/25 01:28:31;;;;;;;8.30;2.45;;;19.30;99.90;;;;;;4971445;28;20023;-80
2022/07/25 01:30:57;;;;;;;7.32;2.75;;;19.30;99.90;;;;;;4974906;28;20021;-79
2022/07/25 01:33:22;;;;;;;6.72;2.22;;;19.30;99.90;;;;;;4972125;28;20109;-80
2022/07/25 01:35:49;;;;;;;11.00;2.42;;;19.40;99.90;;;;;;4971934;28;20420;-79
2022/07/25 01:38:15;;;;;;;11.30;2.50;;;19.40;99.90;;;;;;4972084;28;20496;-79
2022/07/25 01:40:42;;;;;;;9.07;2.45;;;19.30;99.90;;;;;;4971960;28;20130;-79
2022/07/25 01:43:08;;;;;;;9.50;3.40;;;19.30;99.90;;;;;;4970781;28;20545;-80
2022/07/25 01:45:34;;;;;;;6.28;2.30;;;19.30;99.90;;;;;;4971789;28;20030;-80
2022/07/25 01:48:00;;;;;;;8.98;2.63;;;19.20;99.90;;;;;;4970491;28;20023;-80
2022/07/25 01:50:26;;;;;;;6.28;1.95;;;19.20;99.90;;;;;;4971442;28;20061;-80
2022/07/25 01:52:51;;;;;;;8.32;2.80;;;19.10;99.90;;;;;;4971437;28;20106;-79
2022/07/25 01:55:17;;;;;;;7.55;2.42;;;19.10;99.90;;;;;;4971456;28;20464;-80
2022/07/25 01:57:43;;;;;;;7.47;2.78;;;19.00;99.90;;;;;;4971473;28;20038;-80
2022/07/25 02:00:12;;;;;;;5.90;2.00;;;19.00;99.90;;;;;;5004556;23;20049;-78
2022/07/25 02:02:38;;;;;;;6.15;2.40;;;19.00;99.90;;;;;;4991427;28;20475;-79
2022/07/25 02:05:05;;;;;;;9.60;2.17;;;19.00;99.90;;;;;;4991231;28;20011;-80
2022/07/25 02:07:30;;;;;;;11.02;2.80;;;19.10;99.90;;;;;;4991186;28;20030;-79
2022/07/25 02:09:56;;;;;;;6.30;2.20;;;19.10;99.90;;;;;;4991167;28;20077;-80
2022/07/25 02:12:22;;;;;;;9.52;2.63;;;19.10;99.90;;;;;;4991204;28;20026;-79
2022/07/25 02:14:47;;;;;;;9.82;2.60;;;19.10;99.90;;;;;;4989955;28;20031;-79
2022/07/25 02:17:13;;;;;;;9.40;2.65;;;19.00;99.90;;;;;;4990803;28;20041;-80
2022/07/25 02:19:39;;;;;;;10.50;2.85;;;19.00;99.90;;;;;;4990929;28;20379;-78
2022/07/25 02:22:05;;;;;;;7.72;2.63;;;19.00;99.90;;;;;;4990706;28;20022;-79
2022/07/25 02:24:31;;;;;;;8.38;3.00;;;19.00;99.90;;;;;;4991041;28;20030;-79
2022/07/25 02:26:57;;;;;;;8.13;2.58;;;19.00;99.90;;;;;;4991053;28;20018;-80
2022/07/25 02:29:22;;;;;;;7.10;2.40;;;18.90;99.90;;;;;;4990909;28;20029;-79
2022/07/25 02:31:48;;;;;;;8.35;2.60;;;18.90;99.90;;;;;;4990553;28;20034;-79
2022/07/25 02:34:14;;;;;;;8.32;2.55;;;18.90;99.90;;;;;;4994274;28;20018;-80
2022/07/25 02:36:40;;;;;;;6.93;2.90;;;19.00;99.90;;;;;;4994664;28;20026;-79
2022/07/25 02:39:06;;;;;;;7.10;2.38;;;18.90;99.90;;;;;;4994769;28;20472;-80
2022/07/25 02:41:31;;;;;;;7.68;3.28;;;18.90;99.90;;;;;;4994668;28;20089;-79
2022/07/25 02:43:57;;;;;;;8.82;2.40;;;18.90;99.90;;;;;;4994611;28;20027;-81
2022/07/25 02:46:23;;;;;;;10.88;2.50;;;18.90;99.90;;;;;;4994787;28;20023;-78
2022/07/25 02:48:49;;;;;;;12.48;3.03;;;18.90;99.90;;;;;;4994519;28;20097;-81
2022/07/25 02:51:14;;;;;;;11.93;2.78;;;18.90;99.90;;;;;;4994508;28;20506;-78
2022/07/25 02:53:40;;;;;;;13.48;3.08;;;18.90;99.90;;;;;;4994274;28;20029;-79
2022/07/25 02:56:06;;;;;;;8.75;2.90;;;18.90;99.90;;;;;;4993213;28;20484;-77
2022/07/25 03:01:06;;;;;;;11.25;3.03;;;18.70;99.90;;;;;;4972496;28;20039;-80
2022/07/25 03:03:32;;;;;;;6.70;2.92;;;18.50;99.90;;;;;;4973720;28;20034;-80
2022/07/25 03:05:58;;;;;;;13.13;3.40;;;18.40;99.90;;;;;;4974566;28;20027;-81
2022/07/25 03:08:24;;;;;;;10.80;3.42;;;18.30;99.90;;;;;;4973295;28;20023;-82
2022/07/25 03:10:49;;;;;;;10.32;3.30;;;18.30;99.90;;;;;;4973856;28;20019;-81
2022/07/25 03:13:15;;;;;;;14.68;3.60;;;18.30;99.90;;;;;;4975130;28;20073;-81
2022/07/25 03:15:41;;;;;;;12.73;3.85;;;18.20;99.90;;;;;;4973254;28;20054;-81
2022/07/25 03:18:06;;;;;;;10.25;3.08;;;18.20;99.90;;;;;;4974557;28;20027;-82
2022/07/25 03:20:32;;;;;;;8.85;3.28;;;18.20;99.90;;;;;;4974296;28;20019;-81
2022/07/25 03:22:58;;;;;;;14.18;3.08;;;18.20;99.90;;;;;;4974783;28;20102;-82
2022/07/25 03:25:24;;;;;;;17.70;4.18;;;18.20;99.90;;;;;;4973268;28;20033;-81
2022/07/25 03:27:49;;;;;;;15.85;3.58;;;18.20;99.90;;;;;;4974330;28;20023;-81
2022/07/25 03:30:15;;;;;;;13.65;3.40;;;18.20;99.90;;;;;;4973811;28;20081;-81
2022/07/25 03:32:41;;;;;;;10.18;3.30;;;18.20;99.90;;;;;;4974923;28;20051;-81
2022/07/25 03:35:07;;;;;;;11.88;3.60;;;18.20;99.90;;;;;;4974533;28;20030;-81
2022/07/25 03:37:33;;;;;;;11.43;3.30;;;18.20;99.90;;;;;;4972330;28;20053;-80
2022/07/25 03:39:59;;;;;;;11.95;3.25;;;18.20;99.90;;;;;;4972486;28;20023;-80
2022/07/25 03:42:24;;;;;;;9.40;3.28;;;18.30;99.90;;;;;;4974239;28;20031;-81
2022/07/25 03:44:50;;;;;;;13.65;4.18;;;18.30;99.90;;;;;;4974126;28;20023;-81
2022/07/25 03:47:16;;;;;;;10.23;2.92;;;18.30;99.90;;;;;;4974612;28;20023;-81
2022/07/25 03:49:42;;;;;;;11.63;3.47;;;18.20;99.90;;;;;;4974513;28;20019;-81
2022/07/25 03:52:08;;;;;;;11.68;3.58;;;18.20;99.90;;;;;;4972802;28;20027;-81
2022/07/25 03:54:33;;;;;;;13.55;3.38;;;18.10;99.90;;;;;;4972125;28;20465;-81
2022/07/25 03:56:59;;;;;;;15.00;3.13;;;18.20;99.90;;;;;;4971734;28;20026;-82
2022/07/25 03:59:25;;;;;;;11.57;3.13;;;18.20;99.90;;;;;;4998784;23;20034;-80
2022/07/25 04:01:51;;;;;;;9.05;3.70;;;18.20;99.90;;;;;;4976420;28;20031;-82
2022/07/25 04:04:18;;;;;;;12.35;3.70;;;18.20;99.90;;;;;;4973709;28;20026;-82
2022/07/25 04:06:44;;;;;;;14.88;4.15;;;18.30;99.90;;;;;;4973726;28;20031;-81
2022/07/25 04:09:11;;;;;;;9.07;3.55;;;18.30;99.90;;;;;;4973915;28;20033;-80
2022/07/25 04:11:37;;;;;;;14.90;3.22;;;18.40;99.90;;;;;;4973632;28;20022;-79
2022/07/25 04:14:03;;;;;;;14.05;4.10;;;18.40;99.90;;;;;;4973402;28;20030;-82
2022/07/25 04:16:30;;;;;;;9.75;3.83;;;18.40;99.90;;;;;;4973738;28;20073;-80
2022/07/25 04:18:56;;;;;;;12.13;3.58;;;18.30;99.90;;;;;;4973683;28;20019;-79
2022/07/25 04:21:22;;;;;;;11.90;3.30;;;18.20;99.90;;;;;;4973391;28;20019;-79
2022/07/25 04:23:48;;;;;;;13.65;3.92;;;18.20;99.90;;;;;;4973320;28;20480;-78
2022/07/25 04:26:15;;;;;;;10.10;3.72;;;18.20;99.90;;;;;;4972384;28;20042;-80
2022/07/25 04:28:41;;;;;;;14.18;3.83;;;18.20;99.90;;;;;;4973185;28;20027;-79
2022/07/25 04:31:06;;;;;;;14.75;4.22;;;18.20;99.90;;;;;;4975782;28;20022;-80
2022/07/25 04:33:32;;;;;;;20.70;3.50;;;18.30;99.90;;;;;;4973109;28;20465;-79
2022/07/25 04:35:58;;;;;;;15.88;3.40;;;18.20;99.90;;;;;;4972727;28;20109;-79
2022/07/25 04:38:23;;;;;;;13.25;3.85;;;18.20;99.90;;;;;;4973183;28;20487;-79
2022/07/25 04:40:49;;;;;;;9.50;3.10;;;18.10;99.90;;;;;;4973246;28;20026;-79
2022/07/25 04:43:15;;;;;;;7.82;3.00;;;18.00;99.90;;;;;;4972852;28;20019;-79
2022/07/25 04:45:41;;;;;;;12.93;3.17;;;18.00;99.90;;;;;;4972336;28;20082;-79
2022/07/25 04:48:06;;;;;;;16.63;4.20;;;18.10;99.90;;;;;;4973182;28;20029;-79
2022/07/25 04:50:32;;;;;;;13.18;3.47;;;18.10;99.90;;;;;;4972775;28;20457;-79
2022/07/25 04:52:58;;;;;;;9.27;2.92;;;18.10;99.90;;;;;;4972392;28;20033;-79
2022/07/25 04:55:24;;;;;;;13.38;3.10;;;18.10;99.90;;;;;;4972277;28;20023;-79
2022/07/25 04:57:50;;;;;;;10.27;3.53;;;18.10;99.90;;;;;;4972092;28;20064;-81
2022/07/25 05:00:16;;;;;;;9.98;3.00;;;18.10;99.90;;;;;;5008912;23;20050;-80
2022/07/25 05:02:42;;;;;;;9.35;3.38;;;18.10;99.90;;;;;;5007428;28;20042;-80
2022/07/25 05:05:08;;;;;;;12.40;2.90;;;18.20;99.90;;;;;;4990000;28;20018;-80
2022/07/25 05:07:35;;;;;;;12.32;3.65;;;18.20;99.90;;;;;;4992061;28;20022;-81
2022/07/25 05:10:00;;;;;;;12.75;2.85;;;18.20;99.90;;;;;;5001257;28;20027;-80
2022/07/25 05:12:26;;;;;;;9.02;2.92;;;18.30;99.90;;;;;;4975128;28;20015;-80
2022/07/25 05:14:53;;;;;;;9.20;2.85;;;18.30;99.90;;;;;;4976490;28;20049;-80
2022/07/25 05:17:19;;;;;;;15.55;3.35;;;18.40;99.90;;;;;;4972263;28;20026;-80
2022/07/25 05:19:45;;;;;;;10.32;2.88;;;18.30;99.90;;;;;;4972891;28;20065;-79
2022/07/25 05:22:11;;;;;;;13.60;3.17;;;18.40;99.90;;;;;;4973301;28;20125;-83
2022/07/25 05:24:37;;;;;;;10.77;2.50;;;18.30;99.90;;;;;;4973715;28;20499;-80
2022/07/25 05:27:03;;;;;;;9.88;3.13;;;18.30;99.90;;;;;;4980971;28;20472;-80
2022/07/25 05:29:29;;;;;;;8.30;2.00;;;18.20;99.90;;;;;;4974497;28;20507;-80
2022/07/25 05:31:55;;;;;;;6.05;2.78;;;18.20;99.90;;;;;;4973145;28;20034;-82
2022/07/25 05:34:21;;;;;;;8.63;2.55;;;18.10;99.90;;;;;;4972870;28;20380;-82
2022/07/25 05:36:47;;;;;;;13.10;2.88;;;18.10;99.90;;;;;;4971483;28;20046;-80
2022/07/25 05:39:13;;;;;;;11.45;2.92;;;18.10;99.90;;;;;;4978474;28;20030;-82
2022/07/25 05:41:38;;;;;;;5.65;1.98;;;18.10;99.90;;;;;;4971686;28;20030;-81
2022/07/25 05:44:04;;;;;;;12.48;2.72;;;18.20;99.90;;;;;;4972709;28;20519;-79
2022/07/25 05:46:34;;;;;;;8.10;2.38;;;18.40;99.90;;;;;;4972811;28;20062;-79
2022/07/25 05:49:00;;;;;;;6.32;2.10;;;18.40;99.90;;;;;;4965881;28;20023;-81
2022/07/25 05:51:26;;;;;;;7.93;2.10;;;18.60;99.90;;;;;;4980311;28;20479;-82
2022/07/25 05:53:52;;;;;;;11.90;2.47;;;18.60;99.90;;;;;;4975030;28;20030;-81
2022/07/25 05:56:17;;;;;;;7.57;2.45;;;18.70;99.90;;;;;;4975774;28;20149;-80
2022/07/25 06:01:19;;;;;;;9.18;1.50;;;18.80;99.90;;;;;;4970016;28;20047;-80
2022/07/25 06:03:44;;;;;;;6.75;1.85;;;18.80;99.90;;;;;;4971726;28;20041;-79
2022/07/25 06:06:10;;;;;;;10.30;2.13;;;18.80;99.90;;;;;;4971662;28;20027;-79
2022/07/25 06:08:37;;;;;;;6.03;2.00;;;18.80;99.90;;;;;;4974744;28;20061;-79
2022/07/25 06:11:04;;;;;;;11.02;2.03;;;18.80;99.90;;;;;;4976040;28;20042;-79
2022/07/25 06:13:30;;;;;;;8.93;2.03;;;18.80;99.90;;;;;;4975815;28;20019;-79
2022/07/25 06:15:56;;;;;;;11.50;1.50;;;19.00;99.90;;;;;;4975282;28;20114;-80
2022/07/25 06:18:23;;;;;;;10.35;2.00;;;19.00;99.90;;;;;;4975389;28;20441;-78
2022/07/25 06:20:49;;;;;;;6.25;1.40;;;19.10;99.90;;;;;;4975615;28;20025;-79
2022/07/25 06:23:15;;;;;;;8.25;1.17;;;19.10;99.90;;;;;;4975243;28;20023;-80
2022/07/25 06:25:41;;;;;;;6.43;1.40;;;19.10;99.90;;;;;;4975492;28;20498;-79
2022/07/25 06:28:07;;;;;;;4.60;1.13;;;19.20;99.90;;;;;;4975829;28;20030;-80
2022/07/25 06:30:33;;;;;;;7.90;1.02;;;19.20;99.90;;;;;;4975048;28;20053;-79
2022/07/25 06:32:59;;;;;;;6.30;0.95;;;19.20;99.90;;;;;;4974671;28;20461;-81
2022/07/25 06:35:25;;;;;;;2.83;1.10;;;19.10;99.90;;;;;;4975207;28;20106;-80
2022/07/25 06:37:51;;;;;;;18.42;1.73;;;19.10;99.90;;;;;;4975086;28;20035;-81
2022/07/25 06:40:16;;;;;;;6.22;1.05;;;19.10;99.90;;;;;;4975028;28;20027;-80
2022/07/25 06:42:44;;;;;;;7.45;1.83;;;19.00;99.90;;;;;;4975544;28;20035;-79
2022/07/25 06:45:11;;;;;;;9.90;1.85;;;19.00;99.90;;;;;;4975113;28;20057;-80
2022/07/25 06:47:38;;;;;;;9.48;1.73;;;19.00;99.90;;;;;;4975135;28;20078;-81
2022/07/25 06:50:09;;;;;;;7.72;2.08;;;19.00;99.90;;;;;;4974993;28;20030;-79
2022/07/25 06:52:34;;;;;;;9.63;1.58;;;19.00;99.90;;;;;;4975040;28;20142;-78
2022/07/25 06:55:01;;;;;;;8.63;1.85;;;19.10;99.90;;;;;;4974654;28;20546;-81
2022/07/25 06:57:27;;;;;;;9.38;1.75;;;19.20;99.90;;;;;;4975190;28;20166;-78
2022/07/25 06:59:53;;;;;;;7.32;1.45;;;19.20;99.90;;;;;;4999940;23;20129;-75
2022/07/25 07:02:19;;;;;;;9.18;1.40;;;19.20;99.90;;;;;;4994167;28;20037;-78
2022/07/25 07:04:44;;;;;;;2.90;1.08;;;19.30;99.90;;;;;;4993879;28;20033;-75
2022/07/25 07:07:10;;;;;;;8.75;1.40;;;19.50;99.90;;;;;;4987181;28;20022;-76
2022/07/25 07:09:36;;;;;;;7.07;1.45;;;19.60;99.90;;;;;;4987001;28;20033;-75
2022/07/25 07:12:02;;;;;;;9.30;2.15;;;19.70;99.90;;;;;;4975123;28;20023;-73
2022/07/25 07:14:28;;;;;;;5.38;1.48;;;19.80;99.90;;;;;;4975756;28;20069;-73
2022/07/25 07:16:54;;;;;;;11.25;4.63;;;19.80;99.90;;;;;;4976727;28;20042;-73
2022/07/25 07:19:20;;;;;;;12.35;1.67;;;20.00;99.90;;;;;;4974244;28;20022;-74
2022/07/25 07:21:46;;;;;;;10.07;1.75;;;20.10;99.90;;;;;;4975119;28;20073;-73
2022/07/25 07:24:12;;;;;;;3.63;0.93;;;20.30;99.90;;;;;;4975070;28;20038;-75
2022/07/25 07:26:37;;;;;;;4.78;0.90;;;20.30;99.90;;;;;;4974948;28;20578;-76
2022/07/25 07:29:03;;;;;;;5.00;1.00;;;20.30;99.90;;;;;;4974540;28;20038;-76
2022/07/25 07:31:29;;;;;;;5.07;0.98;;;20.20;99.90;;;;;;4974573;28;20029;-76
2022/07/25 07:33:55;;;;;;;6.30;1.15;;;20.20;99.90;;;;;;4974634;28;20027;-76
2022/07/25 07:36:21;;;;;;;5.90;0.90;;;20.20;99.90;;;;;;4974627;28;20026;-76
2022/07/25 07:38:47;;;;;;;4.07;0.60;;;20.30;99.90;;;;;;4974189;28;20034;-76
2022/07/25 07:41:13;;;;;;;3.53;0.85;;;20.10;99.90;;;;;;4972734;28;20027;-76
2022/07/25 07:43:39;;;;;;;3.17;0.80;;;20.00;99.90;;;;;;4972654;28;20388;-76
2022/07/25 07:46:05;;;;;;;4.28;1.48;;;19.90;99.90;;;;;;4974653;28;20023;-75
2022/07/25 07:48:32;;;;;;;8.02;0.80;;;19.80;99.90;;;;;;4974325;28;20113;-76
2022/07/25 07:51:00;;;;;;;6.25;1.58;;;19.80;99.90;;;;;;4975118;28;20025;-74
2022/07/25 07:56:11;;;;;;;6.03;1.05;;;19.70;99.90;;;;;;4974773;28;20050;-76
2022/07/25 07:58:37;;;;;;;1.65;0.60;;;19.70;99.90;;;;;;4980670;28;20048;-75
2022/07/25 08:01:03;;;;;;;4.60;0.90;;;19.80;99.90;;;;;;4980759;28;20403;-75
2022/07/25 08:03:28;;;;;;;2.10;0.47;;;19.80;99.90;;;;;;4980545;28;20022;-76
2022/07/25 08:05:54;;;;;;;4.28;0.77;;;19.80;99.90;;;;;;4976990;28;20458;-76
2022/07/25 08:08:20;;;;;;;5.40;1.10;;;20.00;99.90;;;;;;4977999;28;20038;-76
2022/07/25 08:10:48;;;;;;;3.70;1.02;;;20.10;99.90;;;;;;4980695;28;20504;-75
2022/07/25 08:13:16;;;;;;;8.73;1.08;;;20.20;99.90;;;;;;4972625;28;20133;-75
2022/07/25 08:15:43;;;;;;;7.43;1.40;;;20.30;99.90;;;;;;4973901;28;20074;-76
2022/07/25 08:18:09;;;;;;;18.70;2.00;;;20.50;99.90;;;;;;4974266;28;20568;-76
2022/07/25 08:20:35;;;;;;;7.10;0.85;;;20.60;99.90;;;;;;4974001;28;20102;-75
2022/07/25 08:23:01;;;;;;;7.38;0.95;;;20.80;99.90;;;;;;4974347;28;20030;-75
2022/07/25 08:25:27;;;;;;;5.10;0.90;;;20.80;99.90;;;;;;4974336;28;20054;-75
2022/07/25 08:27:52;;;;;;;5.15;1.23;;;20.80;99.90;;;;;;4972547;28;20047;-76
2022/07/25 08:30:18;;;;;;;7.82;0.95;;;20.90;99.90;;;;;;5018441;23;20533;-78
2022/07/25 08:32:49;;;;;;;4.40;0.88;;;20.90;99.90;;;;;;5012109;28;20021;-78
2022/07/25 08:35:16;;;;;;;8.80;0.70;;;20.70;99.90;;;;;;5011589;28;20035;-77
2022/07/25 08:37:42;;;;;;;8.60;0.90;;;20.60;99.90;;;;;;5011622;28;20034;-79
2022/07/25 08:40:09;;;;;;;2.45;0.52;;;20.30;99.90;;;;;;5004810;28;20531;-78
2022/07/25 08:42:36;;;;;;;5.22;1.08;;;20.20;99.90;;;;;;4997435;28;20032;-78
2022/07/25 08:45:05;;;;;;;6.47;0.60;;;20.50;99.90;;;;;;4995284;28;20619;-78
2022/07/25 08:47:31;;;;;;;3.88;0.68;;;20.80;99.90;;;;;;4993360;28;20026;-78
2022/07/25 08:49:57;;;;;;;5.28;0.93;;;21.30;99.90;;;;;;4993265;28;20546;-79
2022/07/25 08:52:23;;;;;;;2.58;0.50;;;22.10;99.90;;;;;;4991801;28;20117;-78
2022/07/25 08:54:50;;;;;;;3.58;0.57;;;22.20;99.90;;;;;;4993171;28;20113;-77
2022/07/25 08:57:16;;;;;;;0.82;0.30;;;22.20;99.90;;;;;;4986160;28;20085;-78
2022/07/25 08:59:42;;;;;;;2.50;0.88;;;22.10;99.30;;;;;;4992611;28;20023;-78
2022/07/25 09:02:12;;;;;;;5.65;0.65;;;21.80;99.80;;;;;;4992833;28;20044;-79
2022/07/25 09:04:38;;;;;;;2.50;0.40;;;21.90;99.90;;;;;;4992624;28;20029;-78
2022/07/25 09:07:05;;;;;;;6.13;0.63;;;21.80;99.60;;;;;;4992813;28;20018;-78
2022/07/25 09:09:37;;;;;;;5.45;1.25;;;21.80;98.20;;;;;;4992980;28;20045;-78
2022/07/25 09:12:03;;;;;;;3.17;0.35;;;22.40;96.80;;;;;;4992694;28;20130;-77
2022/07/25 09:14:29;;;;;;;2.83;0.30;;;23.30;90.20;;;;;;4992729;28;20026;-78
2022/07/25 09:16:56;;;;;;;5.78;0.80;;;24.30;79.40;;;;;;4992338;28;20034;-79
2022/07/25 09:19:24;;;;;;;3.53;0.45;;;24.40;73.80;;;;;;4992779;28;20029;-78
2022/07/25 09:22:02;;;;;;;4.88;0.40;;;24.60;72.20;;;;;;4992551;28;20072;-77
2022/07/25 09:24:28;;;;;;;3.33;0.47;;;24.50;72.20;;;;;;4985782;28;20037;-79
2022/07/25 09:26:57;;;;;;;4.57;1.00;;;23.90;75.90;;;;;;4986898;28;20053;-79
2022/07/25 09:29:31;;;;;;;3.72;0.77;;;24.20;76.40;;;;;;5015147;23;20344;-80
2022/07/25 09:31:58;;;;;;;3.10;0.70;;;24.80;71.40;;;;;;4991761;28;20045;-78
2022/07/25 09:34:35;;;;;;;4.05;0.30;;;24.70;69.50;;;;;;4991597;28;20073;-77
2022/07/25 09:37:03;;;;;;;3.33;0.40;;;24.20;73.90;;;;;;4990167;28;20026;-80
2022/07/25 09:39:42;;;;;;;2.38;0.50;;;23.90;80.70;;;;;;4991145;28;20101;-78
2022/07/25 09:42:24;;;;;;;3.28;0.50;;;24.00;77.30;;;;;;4991057;28;20026;-78
2022/07/25 09:45:00;;;;;;;;;;;24.10;80.30;;;;;;4990730;28;20678;-79
2022/07/25 09:47:26;;;;;;;1.55;0.60;;;24.10;83.60;;;;;;4991014;28;19999;-78
2022/07/25 09:49:52;;;;;;;5.47;0.57;;;24.20;80.10;;;;;;4990612;28;20153;-78
2022/07/25 09:52:18;;;;;;;5.32;0.63;;;24.70;79.80;;;;;;4991090;28;20101;-79
2022/07/25 09:54:43;;;;;;;1.35;0.40;;;25.10;72.00;;;;;;4991188;28;20049;-79
2022/07/25 09:57:09;;;;;;;8.82;0.88;;;24.70;72.30;;;;;;4990367;28;20034;-77
2022/07/25 09:59:36;;;;;;;3.10;0.45;;;24.90;72.60;;;;;;4989663;28;20065;-78
2022/07/25 10:02:14;;;;;;;4.60;0.77;;;24.80;72.50;;;;;;4991620;28;20045;-77
2022/07/25 10:04:50;;;;;;;2.15;0.45;;;24.30;77.20;;;;;;4985845;28;20475;-78
2022/07/25 10:07:19;;;;;;;4.30;0.40;;;24.00;78.40;;;;;;4991165;28;20034;-77
2022/07/25 10:09:49;;;;;;;1.10;0.35;;;24.20;81.60;;;;;;4990980;28;20025;-77
2022/07/25 10:12:20;;;;;;;5.10;1.17;;;23.70;85.80;;;;;;4990991;28;20026;-77
2022/07/25 10:15:08;;;;;;;4.68;0.45;;;23.60;82.80;;;;;;4990824;28;20015;-77
2022/07/25 10:17:35;;;;;;;4.75;1.40;;;23.10;90.60;;;;;;4990791;28;20034;-77
2022/07/25 10:20:03;;;;;;;3.60;0.50;;;23.50;93.10;;;;;;4991514;28;20019;-77
2022/07/25 10:22:54;;;;;;;4.05;0.63;;;23.60;91.50;;;;;;4991316;28;20026;-78
2022/07/25 10:25:20;;;;;;;;;;;24.00;88.60;;;;;;4990442;28;20034;-78
2022/07/25 10:27:48;;;;;;;3.40;0.70;;;23.90;85.80;;;;;;4991028;28;19906;-77
2022/07/25 10:30:22;;;;;;;1.65;0.77;;;23.80;85.60;;;;;;5017750;23;20131;-76
2022/07/25 10:33:03;;;;;;;5.30;0.68;;;23.80;87.10;;;;;;5010023;28;20018;-75
2022/07/25 10:35:29;;;;;;;3.58;0.77;;;23.60;88.90;;;;;;5004419;28;20030;-75
2022/07/25 10:37:57;;;;;;;2.50;0.63;;;23.60;90.50;;;;;;5010738;28;20525;-75
2022/07/25 10:40:49;;;;;;;6.35;1.27;;;23.40;90.40;;;;;;5010493;28;20022;-75
2022/07/25 10:43:20;;;;;;;4.15;0.63;;;23.30;92.90;;;;;;5010179;28;20088;-76
2022/07/25 10:45:57;;;;;;;5.68;1.05;;;23.40;90.60;;;;;;5010627;28;20168;-76
2022/07/25 10:48:28;;;;;;;2.25;0.60;;;23.30;90.60;;;;;;5010434;28;20065;-75
2022/07/25 10:51:05;;;;;;;;;;;23.70;92.20;;;;;;5004450;28;20053;-76
2022/07/25 10:53:31;;;;;;;6.20;1.08;;;23.70;88.40;;;;;;5011425;28;19955;-76
2022/07/25 10:56:03;;;;;;;6.57;1.02;;;23.60;89.60;;;;;;5013838;28;20068;-75
2022/07/25 10:58:41;;;;;;;6.85;0.77;;;23.70;90.70;;;;;;5013811;28;20018;-76
2022/07/25 11:01:07;;;;;;;9.57;1.02;;;23.40;90.00;;;;;;5015043;28;20022;-76
2022/07/25 11:03:33;;;;;;;7.53;0.90;;;22.90;94.20;;;;;;5013993;28;20022;-75
2022/07/25 11:05:58;;;;;;;5.65;0.82;;;22.40;99.90;;;;;;5013579;28;20023;-74
2022/07/25 11:08:34;;;;;;;10.45;1.02;;;21.90;99.90;;;;;;5012696;28;20064;-76
2022/07/25 11:11:01;;;;;;;2.63;0.45;;;21.40;99.90;;;;;;5008348;28;20736;-75
2022/07/25 11:13:27;;;;;;;4.82;0.90;;;21.30;99.90;;;;;;5013347;28;20109;-75
2022/07/25 11:15:57;;;;;;;6.05;0.90;;;21.20;99.90;;;;;;5013067;28;20097;-76
2022/07/25 11:18:53;;;;;;;11.85;1.55;;;21.20;99.90;;;;;;5013893;28;20033;-75
2022/07/25 11:21:19;;;;;;;4.38;0.80;;;21.00;99.90;;;;;;5002559;28;20060;-76
2022/07/25 11:23:50;;;;;;;7.45;1.10;;;20.50;99.90;;;;;;5012453;28;20025;-75
2022/07/25 11:26:17;;;;;;;4.78;1.00;;;20.30;99.90;;;;;;5005392;28;20060;-75
2022/07/25 11:28:47;;;;;;;7.18;1.20;;;20.20;99.90;;;;;;5013452;28;20026;-75
2022/07/25 11:31:14;;;;;;;5.20;1.02;;;19.90;99.90;;;;;;5015268;28;20037;-75
2022/07/25 11:33:42;;;;;;;10.00;1.30;;;19.70;99.90;;;;;;5013612;28;20483;-75
2022/07/25 11:36:09;;;;;;;12.13;1.15;;;19.90;99.90;;;;;;5012739;28;20029;-76
2022/07/25 11:38:36;;;;;;;7.35;2.05;;;19.80;99.90;;;;;;5012158;28;20053;-76
2022/07/25 11:41:03;;;;;;;8.63;1.60;;;20.00;99.90;;;;;;5013367;28;20030;-75
2022/07/25 11:43:28;;;;;;;3.22;0.60;;;20.60;99.90;;;;;;5013120;28;20018;-76
2022/07/25 11:45:59;;;;;;;4.57;1.38;;;21.10;99.90;;;;;;5013312;28;20022;-75
2022/07/25 11:48:31;;;;;;;2.83;1.00;;;21.40;99.90;;;;;;5013058;28;20018;-76
2022/07/25 11:50:57;;;;;;;6.90;0.77;;;21.30;99.90;;;;;;5013020;28;20029;-76
2022/07/25 11:53:24;;;;;;;6.05;0.60;;;21.20;99.90;;;;;;5012993;28;20475;-76
2022/07/25 11:55:50;;;;;;;9.32;0.93;;;21.10;99.90;;;;;;5013022;28;20491;-76
2022/07/25 11:58:17;;;;;;;5.25;1.17;;;20.90;99.90;;;;;;5013201;28;20069;-75
2022/07/25 12:00:46;;;;;;;6.45;1.42;;;20.90;99.90;;;;;;5029774;23;20053;-77
2022/07/25 12:03:13;;;;;;;6.50;1.15;;;21.00;99.90;;;;;;5012721;28;20026;-78
2022/07/25 12:05:40;;;;;;;8.52;1.02;;;21.10;99.90;;;;;;5011790;28;20068;-77
2022/07/25 12:08:12;;;;;;;6.45;0.80;;;21.30;99.90;;;;;;5012693;28;20033;-78
2022/07/25 12:10:39;;;;;;;8.02;0.98;;;21.40;99.90;;;;;;5002287;28;20165;-78
2022/07/25 12:13:07;;;;;;;1.23;0.40;;;21.30;99.90;;;;;;4993959;28;20467;-78
2022/07/25 12:15:37;;;;;;;2.88;0.60;;;21.00;99.90;;;;;;4992377;28;20040;-78
2022/07/25 12:18:04;;;;;;;5.47;0.55;;;21.00;99.90;;;;;;4993862;28;20557;-78
2022/07/25 12:20:33;;;;;;;4.32;0.60;;;21.10;99.90;;;;;;4992511;28;20033;-78
2022/07/25 12:23:03;;;;;;;7.28;0.68;;;21.30;99.90;;;;;;4992452;28;20700;-78
2022/07/25 12:25:29;;;;;;;2.08;0.68;;;21.50;99.90;;;;;;4993689;28;20073;-77
2022/07/25 12:27:57;;;;;;;1.92;0.60;;;21.60;99.90;;;;;;4993503;28;20065;-77
2022/07/25 12:30:24;;;;;;;3.25;0.60;;;21.80;99.90;;;;;;4989902;28;20046;-78
2022/07/25 12:32:50;;;;;;;3.50;0.70;;;22.00;99.90;;;;;;4993843;28;20026;-78
2022/07/25 12:35:15;;;;;;;7.10;2.17;;;22.10;99.90;;;;;;4993703;28;20029;-77
2022/07/25 12:37:42;;;;;;;3.22;0.50;;;22.00;99.90;;;;;;4993819;28;20112;-77
2022/07/25 12:40:08;;;;;;;7.53;0.88;;;22.00;99.90;;;;;;4993287;28;20019;-78
2022/07/25 12:42:34;;;;;;;5.57;0.90;;;21.80;99.90;;;;;;4992271;28;20026;-79
2022/07/25 12:45:00;;;;;;;4.65;0.70;;;21.80;99.90;;;;;;4993044;28;20019;-77
2022/07/25 12:47:27;;;;;;;5.18;0.90;;;22.00;99.90;;;;;;4993116;28;20046;-78
2022/07/25 12:49:52;;;;;;;6.30;1.08;;;22.30;99.90;;;;;;4999675;28;20030;-79
2022/07/25 12:52:18;;;;;;;6.05;0.85;;;22.50;99.90;;;;;;4993327;28;20019;-78
2022/07/25 12:54:44;;;;;;;8.95;1.13;;;23.10;99.90;;;;;;4992900;28;20438;-78